• Join FlightAware (Why Join?)
  • Login
  • US Flag 
06:23AM EDT


 

Airport Tracker/Info


-or-


 

Live Flight TrackerFlight Track Log ✈ SWA862 ✈ 05-Apr-2013 ✈ KRDU - KBWI

Flight Track Log - Related Links

Times and Time Zones

All times are in EDT time to prevent confusion due to time zone crossing. See the SWA862 flight status page for this flight to view local times or setup timezone preferences in your user account.

Time Position Orientation Groundspeed Altitude Reporting Facility
EDT Latitude Longitude Course Direction KTS MPH feet Rate Location/Type
08:22PM 35.9372 -78.7397 28° Northeast 210 242 4,600  Level Washington Center
08:23PM 35.9950 -78.6908 34° Northeast 276 318 7,200 3,360 Climbing Washington Center
08:24PM 36.0397 -78.6489 37° Northeast 288 331 10,500 3,660 Climbing Washington Center
08:25PM 36.1106 -78.5794 38° Northeast 307 353 13,600 3,300 Climbing Washington Center
08:26PM 36.1833 -78.5050 40° Northeast 322 371 17,200 3,240 Climbing Washington Center
08:27PM 36.2558 -78.4356 38° Northeast 339 390 20,100 2,820 Climbing Washington Center
08:28PM 36.3369 -78.3561 38° Northeast 361 415 22,900 1,440 Climbing Washington Center
08:29PM 36.4181 -78.2814 37° Northeast 361 415 23,000  Climbing Washington Center
08:30PM 36.5011 -78.2042 37° Northeast 361 415 23,000  Level Washington Center
08:31PM 36.5919 -78.1453 27° Northeast 367 422 23,000  Level Washington Center
08:32PM 36.6869 -78.0939 23° Northeast 367 422 23,000  Level Washington Center
08:33PM 36.7800 -78.0425 24° Northeast 362 417 23,000  Level Washington Center
08:34PM 36.8747 -77.9911 23° Northeast 362 417 23,000  Level Washington Center
08:35PM 36.9678 -77.9367 25° Northeast 362 417 23,000  Level Washington Center
08:36PM 37.0647 -77.8850 23° Northeast 362 417 23,000  Level Washington Center
08:37PM 37.1594 -77.8306 25° Northeast 362 417 23,000 -420 Level Washington Center
08:38PM 37.2544 -77.7783 24° Northeast 362 417 22,200 -960 Descending Washington Center
08:39PM 37.3492 -77.7264 24° Northeast 362 417 21,100 -600 Descending Washington Center
08:40PM 37.4397 -77.6739 25° Northeast 362 417 21,000 -60 Descending Washington Center
08:41PM 37.5344 -77.6214 24° Northeast 362 417 21,000  Level Washington Center
08:42PM 37.6336 -77.5664 24° Northeast 368 423 21,000  Level Washington Center
08:43PM 37.7325 -77.5086 25° Northeast 373 429 21,000  Level Washington Center
08:44PM 37.8314 -77.4533 24° Northeast 378 435 21,000 -360 Level Washington Center
08:45PM 37.9283 -77.3950 25° Northeast 378 435 20,300 -900 Descending Washington Center
08:46PM 38.0292 -77.3394 23° Northeast 378 435 19,300 -1,020 Descending Washington Center
08:47PM 38.1281 -77.2839 24° Northeast 378 435 18,300 -1,080 Descending Washington Center
08:48PM 38.2247 -77.2278 25° Northeast 378 435 17,200 -1,140 Descending Washington Center
08:49PM 38.3150 -77.1769 24° Northeast 371 427 16,100 -1,140 Descending Washington Center
08:50PM 38.4011 -77.1283 24° Northeast 349 402 15,000 -1,440 Descending Washington Center
08:51PM 38.4850 -77.0981 16° North 322 371 13,300 -1,800 Descending Washington Center
08:52PM 38.5567 -77.0333 35° Northeast 308 354 11,500 -1,800 Descending Washington Center
08:53PM 38.6017 -76.9306 61° Northeast 301 346 9,700 -1,380 Descending Washington Center
08:54PM 38.6464 -76.8436 57° Northeast 301 346 8,800 -1,020 Descending Washington Center
08:55PM 38.6889 -76.7619 56° Northeast 288 331 7,700 -1,080 Descending Washington Center
08:56PM 38.7292 -76.6775 59° Northeast 276 318 6,700 -960 Descending Washington Center
08:57PM 38.7667 -76.6000 58° Northeast 272 313 6,000 -540 Descending Potomac TRACON
08:58PM 38.8167 -76.5333 46° Northeast 269 310 5,800 -660 Descending Potomac TRACON
08:58PM 38.8667 -76.5333 360° North 240 276 4,800 -900 Descending Potomac TRACON
08:59PM 38.9333 -76.5500 349° North 217 250 4,100 -840 Descending Potomac TRACON
09:00PM 39.0000 -76.5833 339° North 225 259 3,200 -660 Descending Potomac TRACON
09:01PM 39.0500 -76.6000 345° North 201 231 2,800 -600 Descending Potomac TRACON
09:02PM 39.0833 -76.6000 360° North 126 145 2,000 -780 Descending Potomac TRACON
09:03PM 39.1167 -76.6167 339° North 110 127 1,300 -660 Descending Potomac TRACON
09:04PM 39.1333 -76.6333 322° Northwest 112 129 700 -600 Descending Potomac TRACON
09:06PM 39.1667 -76.6667 339° North  Level FlightAware Approximate
09:13PM 39.1754 -76.6683 339° North  Level Estimated
09:14PM 39.1754 -76.6683 339° North  Level Estimated
09:15PM 39.1754 -76.6683 339° North  Level Estimated
09:16PM 39.1754 -76.6683 339° North  Level Estimated